sensor_id;sensor_type;location;lat;lon;timestamp;P1;durP1;ratioP1;P2;durP2;ratioP2
77495;SDS011;66600;48.378;9.948;2023-04-01T00:01:20;2.42;;;1.20;;
77495;SDS011;66600;48.378;9.948;2023-04-01T00:03:46;3.67;;;1.25;;
77495;SDS011;66600;48.378;9.948;2023-04-01T00:06:15;3.55;;;1.17;;
77495;SDS011;66600;48.378;9.948;2023-04-01T00:08:41;3.63;;;1.42;;
77495;SDS011;66600;48.378;9.948;2023-04-01T00:11:07;3.42;;;1.20;;
77495;SDS011;66600;48.378;9.948;2023-04-01T00:13:32;4.90;;;1.25;;
77495;SDS011;66600;48.378;9.948;2023-04-01T00:15:57;2.25;;;1.20;;
77495;SDS011;66600;48.378;9.948;2023-04-01T00:18:25;2.85;;;1.30;;
77495;SDS011;66600;48.378;9.948;2023-04-01T00:20:51;3.30;;;1.42;;
77495;SDS011;66600;48.378;9.948;2023-04-01T00:23:17;2.97;;;1.13;;
77495;SDS011;66600;48.378;9.948;2023-04-01T00:25:43;3.90;;;1.60;;
77495;SDS011;66600;48.378;9.948;2023-04-01T00:28:10;2.83;;;1.17;;
77495;SDS011;66600;48.378;9.948;2023-04-01T00:30:35;3.05;;;1.17;;
77495;SDS011;66600;48.378;9.948;2023-04-01T00:33:01;2.13;;;0.88;;
77495;SDS011;66600;48.378;9.948;2023-04-01T00:35:27;2.38;;;1.30;;
77495;SDS011;66600;48.378;9.948;2023-04-01T00:37:53;2.53;;;1.17;;
77495;SDS011;66600;48.378;9.948;2023-04-01T00:40:33;4.93;;;1.60;;
77495;SDS011;66600;48.378;9.948;2023-04-01T00:43:00;3.70;;;1.20;;
77495;SDS011;66600;48.378;9.948;2023-04-01T00:45:36;3.88;;;1.33;;
77495;SDS011;66600;48.378;9.948;2023-04-01T00:48:08;3.95;;;1.10;;
77495;SDS011;66600;48.378;9.948;2023-04-01T00:50:47;4.72;;;1.40;;
77495;SDS011;66600;48.378;9.948;2023-04-01T00:53:16;3.50;;;1.38;;
77495;SDS011;66600;48.378;9.948;2023-04-01T00:55:44;5.07;;;1.77;;
77495;SDS011;66600;48.378;9.948;2023-04-01T00:58:16;5.95;;;1.48;;
77495;SDS011;66600;48.378;9.948;2023-04-01T01:00:43;4.40;;;1.40;;
77495;SDS011;66600;48.378;9.948;2023-04-01T01:03:11;2.17;;;1.17;;
77495;SDS011;66600;48.378;9.948;2023-04-01T01:06:00;2.63;;;1.40;;
77495;SDS011;66600;48.378;9.948;2023-04-01T01:08:41;2.83;;;1.23;;
77495;SDS011;66600;48.378;9.948;2023-04-01T01:11:47;5.28;;;1.10;;
77495;SDS011;66600;48.378;9.948;2023-04-01T01:14:44;2.60;;;1.17;;
77495;SDS011;66600;48.378;9.948;2023-04-01T01:17:23;3.40;;;1.10;;
77495;SDS011;66600;48.378;9.948;2023-04-01T01:31:23;2.05;;;1.08;;
77495;SDS011;66600;48.378;9.948;2023-04-01T01:36:40;2.40;;;0.80;;
77495;SDS011;66600;48.378;9.948;2023-04-01T01:39:10;1.75;;;0.80;;
77495;SDS011;66600;48.378;9.948;2023-04-01T01:41:38;1.52;;;0.90;;
77495;SDS011;66600;48.378;9.948;2023-04-01T01:44:06;3.33;;;1.30;;
77495;SDS011;66600;48.378;9.948;2023-04-01T01:46:34;3.08;;;0.90;;
77495;SDS011;66600;48.378;9.948;2023-04-01T01:49:00;3.38;;;0.90;;
77495;SDS011;66600;48.378;9.948;2023-04-01T01:51:28;1.75;;;0.90;;
77495;SDS011;66600;48.378;9.948;2023-04-01T01:53:53;1.48;;;0.90;;
77495;SDS011;66600;48.378;9.948;2023-04-01T01:56:20;2.58;;;0.90;;
77495;SDS011;66600;48.378;9.948;2023-04-01T01:58:49;2.72;;;0.85;;
77495;SDS011;66600;48.378;9.948;2023-04-01T02:01:20;2.30;;;0.93;;
77495;SDS011;66600;48.378;9.948;2023-04-01T02:03:49;2.90;;;0.85;;
77495;SDS011;66600;48.378;9.948;2023-04-01T02:06:17;3.75;;;1.00;;
77495;SDS011;66600;48.378;9.948;2023-04-01T02:11:12;2.05;;;1.00;;
77495;SDS011;66600;48.378;9.948;2023-04-01T02:13:42;1.52;;;0.75;;
77495;SDS011;66600;48.378;9.948;2023-04-01T02:16:14;1.90;;;0.80;;
77495;SDS011;66600;48.378;9.948;2023-04-01T02:18:43;2.50;;;0.75;;
77495;SDS011;66600;48.378;9.948;2023-04-01T02:21:10;2.20;;;1.10;;
77495;SDS011;66600;48.378;9.948;2023-04-01T02:23:37;0.95;;;0.70;;
77495;SDS011;66600;48.378;9.948;2023-04-01T02:26:05;1.40;;;0.70;;
77495;SDS011;66600;48.378;9.948;2023-04-01T02:28:33;2.72;;;0.80;;
77495;SDS011;66600;48.378;9.948;2023-04-01T02:31:01;2.25;;;0.88;;
77495;SDS011;66600;48.378;9.948;2023-04-01T02:33:28;3.08;;;0.80;;
77495;SDS011;66600;48.378;9.948;2023-04-01T02:35:55;2.33;;;0.80;;
77495;SDS011;66600;48.378;9.948;2023-04-01T02:38:21;1.75;;;0.80;;
77495;SDS011;66600;48.378;9.948;2023-04-01T02:40:48;2.25;;;0.63;;
77495;SDS011;66600;48.378;9.948;2023-04-01T02:43:16;13.57;;;1.13;;
77495;SDS011;66600;48.378;9.948;2023-04-01T02:45:42;1.38;;;0.80;;
77495;SDS011;66600;48.378;9.948;2023-04-01T02:48:08;1.48;;;0.85;;
77495;SDS011;66600;48.378;9.948;2023-04-01T02:50:33;1.20;;;0.52;;
77495;SDS011;66600;48.378;9.948;2023-04-01T02:52:59;0.77;;;0.50;;
77495;SDS011;66600;48.378;9.948;2023-04-01T02:55:27;1.67;;;0.60;;
77495;SDS011;66600;48.378;9.948;2023-04-01T02:57:53;1.45;;;0.70;;
77495;SDS011;66600;48.378;9.948;2023-04-01T03:00:18;2.83;;;0.80;;
77495;SDS011;66600;48.378;9.948;2023-04-01T03:02:43;2.13;;;0.60;;
77495;SDS011;66600;48.378;9.948;2023-04-01T03:05:09;2.88;;;0.70;;
77495;SDS011;66600;48.378;9.948;2023-04-01T03:07:35;2.25;;;0.60;;
77495;SDS011;66600;48.378;9.948;2023-04-01T03:10:00;1.35;;;0.90;;
77495;SDS011;66600;48.378;9.948;2023-04-01T03:12:26;1.80;;;0.52;;
77495;SDS011;66600;48.378;9.948;2023-04-01T03:14:51;1.70;;;0.40;;
77495;SDS011;66600;48.378;9.948;2023-04-01T03:17:16;1.02;;;0.47;;
77495;SDS011;66600;48.378;9.948;2023-04-01T03:19:42;1.35;;;0.60;;
77495;SDS011;66600;48.378;9.948;2023-04-01T03:22:08;0.45;;;0.30;;
77495;SDS011;66600;48.378;9.948;2023-04-01T03:24:36;0.90;;;0.40;;
77495;SDS011;66600;48.378;9.948;2023-04-01T03:27:01;0.28;;;0.28;;
77495;SDS011;66600;48.378;9.948;2023-04-01T03:29:26;0.52;;;0.30;;
77495;SDS011;66600;48.378;9.948;2023-04-01T03:31:51;1.27;;;0.40;;
77495;SDS011;66600;48.378;9.948;2023-04-01T03:34:17;0.80;;;0.32;;
77495;SDS011;66600;48.378;9.948;2023-04-01T03:36:42;0.77;;;0.30;;
77495;SDS011;66600;48.378;9.948;2023-04-01T03:39:07;0.60;;;0.40;;
77495;SDS011;66600;48.378;9.948;2023-04-01T03:41:34;0.90;;;0.30;;
77495;SDS011;66600;48.378;9.948;2023-04-01T03:44:01;3.33;;;0.35;;
77495;SDS011;66600;48.378;9.948;2023-04-01T03:46:26;1.10;;;0.50;;
77495;SDS011;66600;48.378;9.948;2023-04-01T03:48:51;1.30;;;0.30;;
77495;SDS011;66600;48.378;9.948;2023-04-01T03:51:16;0.98;;;0.38;;
77495;SDS011;66600;48.378;9.948;2023-04-01T03:53:42;0.40;;;0.28;;
77495;SDS011;66600;48.378;9.948;2023-04-01T03:56:07;2.13;;;0.65;;
77495;SDS011;66600;48.378;9.948;2023-04-01T03:58:34;1.42;;;0.55;;
77495;SDS011;66600;48.378;9.948;2023-04-01T04:00:59;0.40;;;0.40;;
77495;SDS011;66600;48.378;9.948;2023-04-01T04:03:25;3.13;;;0.50;;
77495;SDS011;66600;48.378;9.948;2023-04-01T04:05:51;1.15;;;0.50;;
77495;SDS011;66600;48.378;9.948;2023-04-01T04:08:16;0.98;;;0.50;;
77495;SDS011;66600;48.378;9.948;2023-04-01T04:10:42;1.15;;;0.43;;
77495;SDS011;66600;48.378;9.948;2023-04-01T04:13:08;1.58;;;0.50;;
77495;SDS011;66600;48.378;9.948;2023-04-01T04:15:33;1.05;;;0.50;;
77495;SDS011;66600;48.378;9.948;2023-04-01T04:17:58;1.80;;;0.82;;
77495;SDS011;66600;48.378;9.948;2023-04-01T04:20:24;2.28;;;0.60;;
77495;SDS011;66600;48.378;9.948;2023-04-01T04:22:50;3.85;;;0.90;;
77495;SDS011;66600;48.378;9.948;2023-04-01T04:25:15;1.73;;;1.08;;
77495;SDS011;66600;48.378;9.948;2023-04-01T04:27:40;1.27;;;0.80;;
77495;SDS011;66600;48.378;9.948;2023-04-01T04:30:06;2.35;;;0.90;;
77495;SDS011;66600;48.378;9.948;2023-04-01T04:32:33;1.95;;;0.80;;
77495;SDS011;66600;48.378;9.948;2023-04-01T04:34:59;1.40;;;0.80;;
77495;SDS011;66600;48.378;9.948;2023-04-01T04:37:24;1.75;;;0.80;;
77495;SDS011;66600;48.378;9.948;2023-04-01T04:39:51;3.13;;;0.90;;
77495;SDS011;66600;48.378;9.948;2023-04-01T04:42:16;0.73;;;0.60;;
77495;SDS011;66600;48.378;9.948;2023-04-01T04:44:42;2.40;;;0.60;;
77495;SDS011;66600;48.378;9.948;2023-04-01T04:47:07;3.92;;;0.80;;
77495;SDS011;66600;48.378;9.948;2023-04-01T04:49:32;1.73;;;0.50;;
77495;SDS011;66600;48.378;9.948;2023-04-01T04:51:58;0.80;;;0.70;;
77495;SDS011;66600;48.378;9.948;2023-04-01T04:54:23;2.15;;;0.90;;
77495;SDS011;66600;48.378;9.948;2023-04-01T04:56:50;2.53;;;1.10;;
77495;SDS011;66600;48.378;9.948;2023-04-01T04:59:16;2.75;;;0.82;;
77495;SDS011;66600;48.378;9.948;2023-04-01T05:01:42;3.35;;;0.95;;
77495;SDS011;66600;48.378;9.948;2023-04-01T05:04:07;1.88;;;0.90;;
77495;SDS011;66600;48.378;9.948;2023-04-01T05:06:32;2.53;;;1.13;;
77495;SDS011;66600;48.378;9.948;2023-04-01T05:08:58;1.33;;;0.80;;
77495;SDS011;66600;48.378;9.948;2023-04-01T05:11:23;1.65;;;0.90;;
77495;SDS011;66600;48.378;9.948;2023-04-01T05:13:48;0.93;;;0.65;;
77495;SDS011;66600;48.378;9.948;2023-04-01T05:16:16;1.95;;;0.80;;
77495;SDS011;66600;48.378;9.948;2023-04-01T05:18:43;2.53;;;0.80;;
77495;SDS011;66600;48.378;9.948;2023-04-01T05:21:09;2.05;;;0.75;;
77495;SDS011;66600;48.378;9.948;2023-04-01T05:23:36;1.85;;;0.60;;
77495;SDS011;66600;48.378;9.948;2023-04-01T05:26:05;0.95;;;0.65;;
77495;SDS011;66600;48.378;9.948;2023-04-01T05:28:31;3.03;;;0.70;;
77495;SDS011;66600;48.378;9.948;2023-04-01T05:31:01;1.10;;;0.60;;
77495;SDS011;66600;48.378;9.948;2023-04-01T05:33:27;1.80;;;0.60;;
77495;SDS011;66600;48.378;9.948;2023-04-01T05:35:53;1.35;;;0.60;;
77495;SDS011;66600;48.378;9.948;2023-04-01T05:38:19;1.10;;;0.57;;
77495;SDS011;66600;48.378;9.948;2023-04-01T05:40:44;2.63;;;0.90;;
77495;SDS011;66600;48.378;9.948;2023-04-01T05:43:10;4.30;;;1.00;;
77495;SDS011;66600;48.378;9.948;2023-04-01T05:45:36;2.67;;;0.82;;
77495;SDS011;66600;48.378;9.948;2023-04-01T05:48:01;2.60;;;1.08;;
77495;SDS011;66600;48.378;9.948;2023-04-01T05:50:27;2.75;;;0.90;;
77495;SDS011;66600;48.378;9.948;2023-04-01T05:52:52;3.78;;;1.00;;
77495;SDS011;66600;48.378;9.948;2023-04-01T05:55:18;2.53;;;0.90;;
77495;SDS011;66600;48.378;9.948;2023-04-01T05:57:44;3.00;;;1.08;;
77495;SDS011;66600;48.378;9.948;2023-04-01T06:00:11;3.45;;;1.42;;
77495;SDS011;66600;48.378;9.948;2023-04-01T06:02:37;2.15;;;1.20;;
77495;SDS011;66600;48.378;9.948;2023-04-01T06:05:11;3.47;;;1.30;;
77495;SDS011;66600;48.378;9.948;2023-04-01T06:07:42;3.25;;;1.20;;
77495;SDS011;66600;48.378;9.948;2023-04-01T06:10:12;4.03;;;1.25;;
77495;SDS011;66600;48.378;9.948;2023-04-01T06:12:51;2.58;;;1.20;;
77495;SDS011;66600;48.378;9.948;2023-04-01T06:15:34;3.58;;;1.35;;
77495;SDS011;66600;48.378;9.948;2023-04-01T06:18:22;2.15;;;1.20;;
77495;SDS011;66600;48.378;9.948;2023-04-01T06:45:00;0.80;;;0.70;;
77495;SDS011;66600;48.378;9.948;2023-04-01T06:47:52;2.50;;;1.38;;
77495;SDS011;66600;48.378;9.948;2023-04-01T06:50:50;2.22;;;0.73;;
77495;SDS011;66600;48.378;9.948;2023-04-01T06:56:24;1.63;;;0.60;;
77495;SDS011;66600;48.378;9.948;2023-04-01T06:58:53;2.20;;;0.60;;
77495;SDS011;66600;48.378;9.948;2023-04-01T07:01:24;0.40;;;0.40;;
77495;SDS011;66600;48.378;9.948;2023-04-01T07:09:19;2.58;;;0.85;;
77495;SDS011;66600;48.378;9.948;2023-04-01T07:11:49;0.90;;;0.70;;
77495;SDS011;66600;48.378;9.948;2023-04-01T07:14:19;1.35;;;0.70;;
77495;SDS011;66600;48.378;9.948;2023-04-01T07:16:47;0.80;;;0.77;;
77495;SDS011;66600;48.378;9.948;2023-04-01T07:19:29;2.03;;;0.85;;
77495;SDS011;66600;48.378;9.948;2023-04-01T07:22:01;1.83;;;0.80;;
77495;SDS011;66600;48.378;9.948;2023-04-01T07:24:34;0.60;;;0.47;;
77495;SDS011;66600;48.378;9.948;2023-04-01T07:27:02;2.30;;;0.82;;
77495;SDS011;66600;48.378;9.948;2023-04-01T07:29:30;1.10;;;0.70;;
77495;SDS011;66600;48.378;9.948;2023-04-01T07:32:05;1.17;;;0.80;;
77495;SDS011;66600;48.378;9.948;2023-04-01T07:43:06;2.28;;;0.82;;
77495;SDS011;66600;48.378;9.948;2023-04-01T07:48:43;1.27;;;0.80;;
77495;SDS011;66600;48.378;9.948;2023-04-01T07:51:18;2.00;;;0.90;;
77495;SDS011;66600;48.378;9.948;2023-04-01T08:02:27;1.52;;;0.65;;
77495;SDS011;66600;48.378;9.948;2023-04-01T08:08:06;2.03;;;0.70;;
77495;SDS011;66600;48.378;9.948;2023-04-01T08:10:52;1.98;;;0.70;;
77495;SDS011;66600;48.378;9.948;2023-04-01T08:13:34;2.22;;;0.90;;
77495;SDS011;66600;48.378;9.948;2023-04-01T08:16:12;0.77;;;0.50;;
77495;SDS011;66600;48.378;9.948;2023-04-01T08:21:32;2.55;;;0.93;;
77495;SDS011;66600;48.378;9.948;2023-04-01T08:26:51;2.42;;;0.70;;
77495;SDS011;66600;48.378;9.948;2023-04-01T08:29:21;2.15;;;0.60;;
77495;SDS011;66600;48.378;9.948;2023-04-01T08:31:51;1.30;;;0.50;;
77495;SDS011;66600;48.378;9.948;2023-04-01T08:34:28;1.10;;;0.65;;
77495;SDS011;66600;48.378;9.948;2023-04-01T08:37:00;1.23;;;0.55;;
77495;SDS011;66600;48.378;9.948;2023-04-01T08:39:37;1.15;;;0.50;;
77495;SDS011;66600;48.378;9.948;2023-04-01T08:51:08;0.85;;;0.50;;
77495;SDS011;66600;48.378;9.948;2023-04-01T08:54:06;1.67;;;0.70;;
77495;SDS011;66600;48.378;9.948;2023-04-01T08:56:58;0.63;;;0.50;;
77495;SDS011;66600;48.378;9.948;2023-04-01T09:02:39;1.60;;;0.60;;
77495;SDS011;66600;48.378;9.948;2023-04-01T09:08:08;0.47;;;0.43;;
77495;SDS011;66600;48.378;9.948;2023-04-01T09:11:11;1.55;;;0.80;;
77495;SDS011;66600;48.378;9.948;2023-04-01T09:16:18;0.98;;;0.50;;
77495;SDS011;66600;48.378;9.948;2023-04-01T09:27:54;1.00;;;0.60;;
77495;SDS011;66600;48.378;9.948;2023-04-01T09:30:31;0.88;;;0.80;;
77495;SDS011;66600;48.378;9.948;2023-04-01T09:35:49;0.73;;;0.50;;
77495;SDS011;66600;48.378;9.948;2023-04-01T09:38:23;1.27;;;0.60;;
77495;SDS011;66600;48.378;9.948;2023-04-01T09:40:56;0.43;;;0.43;;
77495;SDS011;66600;48.378;9.948;2023-04-01T09:51:37;0.90;;;0.60;;
77495;SDS011;66600;48.378;9.948;2023-04-01T10:05:53;1.20;;;0.60;;
77495;SDS011;66600;48.378;9.948;2023-04-01T10:22:49;1.52;;;0.75;;
77495;SDS011;66600;48.378;9.948;2023-04-01T10:34:17;0.85;;;0.45;;
77495;SDS011;66600;48.378;9.948;2023-04-01T10:36:57;1.05;;;0.50;;
77495;SDS011;66600;48.378;9.948;2023-04-01T10:42:28;0.70;;;0.45;;
77495;SDS011;66600;48.378;9.948;2023-04-01T10:47:57;0.68;;;0.55;;
77495;SDS011;66600;48.378;9.948;2023-04-01T10:53:36;0.98;;;0.50;;
77495;SDS011;66600;48.378;9.948;2023-04-01T11:04:26;0.95;;;0.55;;
77495;SDS011;66600;48.378;9.948;2023-04-01T11:18:24;0.98;;;0.65;;
77495;SDS011;66600;48.378;9.948;2023-04-01T11:24:02;1.20;;;0.68;;
77495;SDS011;66600;48.378;9.948;2023-04-01T11:26:39;0.98;;;0.77;;
77495;SDS011;66600;48.378;9.948;2023-04-01T11:32:20;1.88;;;0.82;;
77495;SDS011;66600;48.378;9.948;2023-04-01T11:46:17;2.35;;;0.60;;
77495;SDS011;66600;48.378;9.948;2023-04-01T11:51:27;0.80;;;0.52;;
77495;SDS011;66600;48.378;9.948;2023-04-01T11:54:32;0.60;;;0.60;;
77495;SDS011;66600;48.378;9.948;2023-04-01T11:57:37;1.92;;;0.60;;
77495;SDS011;66600;48.378;9.948;2023-04-01T12:00:14;1.33;;;0.73;;
77495;SDS011;66600;48.378;9.948;2023-04-01T12:08:44;0.47;;;0.47;;
77495;SDS011;66600;48.378;9.948;2023-04-01T12:19:53;1.10;;;0.57;;
77495;SDS011;66600;48.378;9.948;2023-04-01T12:24:54;0.35;;;0.35;;
77495;SDS011;66600;48.378;9.948;2023-04-01T12:30:42;0.70;;;0.60;;
77495;SDS011;66600;48.378;9.948;2023-04-01T12:33:18;0.95;;;0.50;;
77495;SDS011;66600;48.378;9.948;2023-04-01T12:41:57;0.43;;;0.43;;
77495;SDS011;66600;48.378;9.948;2023-04-01T12:44:37;0.40;;;0.40;;
77495;SDS011;66600;48.378;9.948;2023-04-01T12:49:56;0.50;;;0.50;;
77495;SDS011;66600;48.378;9.948;2023-04-01T12:52:48;1.20;;;0.60;;
77495;SDS011;66600;48.378;9.948;2023-04-01T12:55:35;0.80;;;0.60;;
77495;SDS011;66600;48.378;9.948;2023-04-01T12:58:07;0.70;;;0.70;;
77495;SDS011;66600;48.378;9.948;2023-04-01T13:07:03;1.10;;;0.63;;
77495;SDS011;66600;48.378;9.948;2023-04-01T13:12:36;0.70;;;0.70;;
77495;SDS011;66600;48.378;9.948;2023-04-01T13:15:37;1.00;;;0.90;;
77495;SDS011;66600;48.378;9.948;2023-04-01T13:20:55;0.50;;;0.50;;
77495;SDS011;66600;48.378;9.948;2023-04-01T13:26:13;1.48;;;0.60;;
77495;SDS011;66600;48.378;9.948;2023-04-01T13:29:05;1.10;;;0.65;;
77495;SDS011;66600;48.378;9.948;2023-04-01T13:39:52;1.27;;;0.70;;
77495;SDS011;66600;48.378;9.948;2023-04-01T13:42:41;0.52;;;0.40;;
77495;SDS011;66600;48.378;9.948;2023-04-01T13:45:16;0.50;;;0.50;;
77495;SDS011;66600;48.378;9.948;2023-04-01T13:55:53;0.40;;;0.40;;
77495;SDS011;66600;48.378;9.948;2023-04-01T14:06:33;7.13;;;2.20;;
77495;SDS011;66600;48.378;9.948;2023-04-01T14:12:17;0.30;;;0.30;;
77495;SDS011;66600;48.378;9.948;2023-04-01T14:14:46;0.47;;;0.30;;
77495;SDS011;66600;48.378;9.948;2023-04-01T14:20:20;0.50;;;0.20;;
77495;SDS011;66600;48.378;9.948;2023-04-01T14:25:39;0.30;;;0.30;;
77495;SDS011;66600;48.378;9.948;2023-04-01T14:33:58;0.20;;;0.20;;
77495;SDS011;66600;48.378;9.948;2023-04-01T14:50:57;0.30;;;0.30;;
77495;SDS011;66600;48.378;9.948;2023-04-01T14:53:30;0.30;;;0.30;;
77495;SDS011;66600;48.378;9.948;2023-04-01T14:56:01;0.22;;;0.20;;
77495;SDS011;66600;48.378;9.948;2023-04-01T14:58:43;1.05;;;0.30;;
77495;SDS011;66600;48.378;9.948;2023-04-01T15:07:11;1.23;;;0.40;;
77495;SDS011;66600;48.378;9.948;2023-04-01T15:09:45;0.32;;;0.30;;
77495;SDS011;66600;48.378;9.948;2023-04-01T15:12:18;1.08;;;0.30;;
77495;SDS011;66600;48.378;9.948;2023-04-01T15:15:22;0.60;;;0.40;;
77495;SDS011;66600;48.378;9.948;2023-04-01T15:18:08;0.90;;;0.40;;
77495;SDS011;66600;48.378;9.948;2023-04-01T15:20:42;0.60;;;0.25;;
77495;SDS011;66600;48.378;9.948;2023-04-01T15:23:21;0.40;;;0.40;;
77495;SDS011;66600;48.378;9.948;2023-04-01T15:26:15;0.32;;;0.30;;
77495;SDS011;66600;48.378;9.948;2023-04-01T15:28:53;0.60;;;0.40;;
77495;SDS011;66600;48.378;9.948;2023-04-01T15:31:49;0.88;;;0.40;;
77495;SDS011;66600;48.378;9.948;2023-04-01T15:34:33;1.02;;;0.40;;
77495;SDS011;66600;48.378;9.948;2023-04-01T15:50:33;1.08;;;0.65;;
77495;SDS011;66600;48.378;9.948;2023-04-01T15:55:59;0.73;;;0.50;;
77495;SDS011;66600;48.378;9.948;2023-04-01T16:06:56;1.50;;;0.90;;
77495;SDS011;66600;48.378;9.948;2023-04-01T16:10:13;1.92;;;1.05;;
77495;SDS011;66600;48.378;9.948;2023-04-01T16:12:33;1.10;;;0.80;;
77495;SDS011;66600;48.378;9.948;2023-04-01T16:18:09;1.95;;;1.00;;
77495;SDS011;66600;48.378;9.948;2023-04-01T16:20:58;2.47;;;1.02;;
77495;SDS011;66600;48.378;9.948;2023-04-01T16:26:17;2.20;;;1.00;;
77495;SDS011;66600;48.378;9.948;2023-04-01T16:28:54;0.98;;;0.88;;
77495;SDS011;66600;48.378;9.948;2023-04-01T16:36:48;2.83;;;1.52;;
77495;SDS011;66600;48.378;9.948;2023-04-01T16:45:06;2.78;;;1.02;;
77495;SDS011;66600;48.378;9.948;2023-04-01T16:47:40;3.55;;;1.10;;
77495;SDS011;66600;48.378;9.948;2023-04-01T16:50:23;1.40;;;1.10;;
77495;SDS011;66600;48.378;9.948;2023-04-01T16:55:46;1.98;;;0.80;;
77495;SDS011;66600;48.378;9.948;2023-04-01T17:01:26;1.23;;;0.90;;
77495;SDS011;66600;48.378;9.948;2023-04-01T17:04:42;1.95;;;0.90;;
77495;SDS011;66600;48.378;9.948;2023-04-01T17:18:13;3.42;;;1.33;;
77495;SDS011;66600;48.378;9.948;2023-04-01T17:21:02;2.47;;;1.33;;
77495;SDS011;66600;48.378;9.948;2023-04-01T17:23:41;2.53;;;1.30;;
77495;SDS011;66600;48.378;9.948;2023-04-01T17:29:28;2.50;;;1.40;;
77495;SDS011;66600;48.378;9.948;2023-04-01T17:32:04;9.80;;;1.73;;
77495;SDS011;66600;48.378;9.948;2023-04-01T17:40:27;3.83;;;1.70;;
77495;SDS011;66600;48.378;9.948;2023-04-01T17:43:15;2.85;;;1.38;;
77495;SDS011;66600;48.378;9.948;2023-04-01T17:45:54;3.55;;;1.50;;
77495;SDS011;66600;48.378;9.948;2023-04-01T17:56:57;1.77;;;1.27;;
77495;SDS011;66600;48.378;9.948;2023-04-01T18:00:13;3.42;;;1.60;;
77495;SDS011;66600;48.378;9.948;2023-04-01T18:02:49;4.78;;;1.70;;
77495;SDS011;66600;48.378;9.948;2023-04-01T18:08:09;3.97;;;1.83;;
77495;SDS011;66600;48.378;9.948;2023-04-01T18:15:44;2.33;;;1.30;;
77495;SDS011;66600;48.378;9.948;2023-04-01T18:23:45;1.90;;;1.40;;
77495;SDS011;66600;48.378;9.948;2023-04-01T18:26:20;2.15;;;1.40;;
77495;SDS011;66600;48.378;9.948;2023-04-01T18:28:57;1.52;;;1.20;;
77495;SDS011;66600;48.378;9.948;2023-04-01T18:31:36;2.95;;;1.75;;
77495;SDS011;66600;48.378;9.948;2023-04-01T18:34:07;2.17;;;1.38;;
77495;SDS011;66600;48.378;9.948;2023-04-01T18:36:53;3.35;;;1.50;;
77495;SDS011;66600;48.378;9.948;2023-04-01T18:39:31;5.28;;;2.08;;
77495;SDS011;66600;48.378;9.948;2023-04-01T18:45:21;1.95;;;1.20;;
77495;SDS011;66600;48.378;9.948;2023-04-01T18:50:52;1.88;;;1.30;;
77495;SDS011;66600;48.378;9.948;2023-04-01T19:05:04;1.58;;;1.08;;
77495;SDS011;66600;48.378;9.948;2023-04-01T19:07:46;1.60;;;0.90;;
77495;SDS011;66600;48.378;9.948;2023-04-01T19:10:14;1.80;;;0.80;;
77495;SDS011;66600;48.378;9.948;2023-04-01T19:20:44;0.85;;;0.60;;
77495;SDS011;66600;48.378;9.948;2023-04-01T19:26:05;0.80;;;0.70;;
77495;SDS011;66600;48.378;9.948;2023-04-01T19:31:50;1.25;;;0.90;;
77495;SDS011;66600;48.378;9.948;2023-04-01T19:35:24;1.73;;;0.95;;
77495;SDS011;66600;48.378;9.948;2023-04-01T19:45:52;2.33;;;1.08;;
77495;SDS011;66600;48.378;9.948;2023-04-01T19:51:31;1.50;;;0.80;;
77495;SDS011;66600;48.378;9.948;2023-04-01T19:54:01;1.05;;;0.80;;
77495;SDS011;66600;48.378;9.948;2023-04-01T19:57:03;1.38;;;0.90;;
77495;SDS011;66600;48.378;9.948;2023-04-01T19:59:49;1.00;;;0.80;;
77495;SDS011;66600;48.378;9.948;2023-04-01T20:02:26;2.72;;;0.88;;
77495;SDS011;66600;48.378;9.948;2023-04-01T20:04:58;1.42;;;1.00;;
77495;SDS011;66600;48.378;9.948;2023-04-01T20:07:31;1.67;;;0.80;;
77495;SDS011;66600;48.378;9.948;2023-04-01T20:10:04;1.30;;;1.02;;
77495;SDS011;66600;48.378;9.948;2023-04-01T20:15:34;2.15;;;1.00;;
77495;SDS011;66600;48.378;9.948;2023-04-01T20:18:12;1.70;;;0.75;;
77495;SDS011;66600;48.378;9.948;2023-04-01T20:20:38;1.73;;;1.00;;
77495;SDS011;66600;48.378;9.948;2023-04-01T20:23:06;1.98;;;1.00;;
77495;SDS011;66600;48.378;9.948;2023-04-01T20:25:48;0.80;;;0.70;;
77495;SDS011;66600;48.378;9.948;2023-04-01T20:33:25;1.08;;;0.70;;
77495;SDS011;66600;48.378;9.948;2023-04-01T20:42:05;2.88;;;0.80;;
77495;SDS011;66600;48.378;9.948;2023-04-01T20:44:59;2.80;;;1.23;;
77495;SDS011;66600;48.378;9.948;2023-04-01T20:50:28;1.55;;;0.90;;
77495;SDS011;66600;48.378;9.948;2023-04-01T21:09:51;1.83;;;0.98;;
77495;SDS011;66600;48.378;9.948;2023-04-01T21:12:47;2.40;;;1.40;;
77495;SDS011;66600;48.378;9.948;2023-04-01T21:18:59;2.85;;;1.60;;
77495;SDS011;66600;48.378;9.948;2023-04-01T21:21:39;2.70;;;1.40;;
77495;SDS011;66600;48.378;9.948;2023-04-01T21:24:34;2.15;;;1.35;;
77495;SDS011;66600;48.378;9.948;2023-04-01T21:27:13;1.77;;;1.10;;
77495;SDS011;66600;48.378;9.948;2023-04-01T21:38:47;2.25;;;1.38;;
77495;SDS011;66600;48.378;9.948;2023-04-01T21:41:21;2.40;;;1.60;;
77495;SDS011;66600;48.378;9.948;2023-04-01T22:06:30;4.38;;;2.10;;
77495;SDS011;66600;48.378;9.948;2023-04-01T22:16:27;2.65;;;1.52;;
77495;SDS011;66600;48.378;9.948;2023-04-01T22:19:03;2.92;;;1.50;;
77495;SDS011;66600;48.378;9.948;2023-04-01T22:21:52;2.08;;;1.42;;
77495;SDS011;66600;48.378;9.948;2023-04-01T22:35:23;3.10;;;1.70;;
77495;SDS011;66600;48.378;9.948;2023-04-01T22:38:15;2.83;;;1.90;;
77495;SDS011;66600;48.378;9.948;2023-04-01T22:44:12;3.60;;;1.70;;
77495;SDS011;66600;48.378;9.948;2023-04-01T22:49:57;2.80;;;1.30;;
77495;SDS011;66600;48.378;9.948;2023-04-01T22:52:32;4.15;;;1.40;;
77495;SDS011;66600;48.378;9.948;2023-04-01T22:55:17;2.53;;;1.33;;
77495;SDS011;66600;48.378;9.948;2023-04-01T22:58:00;2.90;;;1.23;;
77495;SDS011;66600;48.378;9.948;2023-04-01T23:01:04;2.85;;;1.15;;
77495;SDS011;66600;48.378;9.948;2023-04-01T23:05:58;2.35;;;1.40;;
77495;SDS011;66600;48.378;9.948;2023-04-01T23:22:19;2.40;;;1.40;;
77495;SDS011;66600;48.378;9.948;2023-04-01T23:24:55;2.25;;;1.35;;
77495;SDS011;66600;48.378;9.948;2023-04-01T23:27:44;3.55;;;1.60;;
77495;SDS011;66600;48.378;9.948;2023-04-01T23:33:19;1.85;;;1.40;;
77495;SDS011;66600;48.378;9.948;2023-04-01T23:35:48;1.80;;;1.30;;
77495;SDS011;66600;48.378;9.948;2023-04-01T23:38:36;2.53;;;1.48;;
77495;SDS011;66600;48.378;9.948;2023-04-01T23:41:04;3.10;;;1.60;;
77495;SDS011;66600;48.378;9.948;2023-04-01T23:43:31;2.47;;;1.50;;
77495;SDS011;66600;48.378;9.948;2023-04-01T23:46:06;2.30;;;1.38;;
77495;SDS011;66600;48.378;9.948;2023-04-01T23:48:40;3.03;;;1.85;;
77495;SDS011;66600;48.378;9.948;2023-04-01T23:51:12;4.90;;;1.80;;
77495;SDS011;66600;48.378;9.948;2023-04-01T23:53:46;3.60;;;1.70;;
77495;SDS011;66600;48.378;9.948;2023-04-01T23:56:15;2.97;;;1.67;;
77495;SDS011;66600;48.378;9.948;2023-04-01T23:58:46;2.00;;;1.60;;
